Pagina principale
METAR-TAF:

METAR-TAF

Aeroporti :

Aeroporto di Napoli-Capodichino

Napoli, Italia

latitudine: 40-51N, longitudine: 014-18E, altezza: 88 m

Osservazione

Il bollettino è stato emesso 40 minuti fa, alle 00:50 UTC
Vento 3 kt da sud-ovest, variando fra sud/sud-ovest e ovest
Temperature 13°C
Umidità 82%
Pressione 1025 hPa
Visibilità 10 km o più
Nubi sparse ad un'altezza di 3000 ft

METAR: LIRN 240050Z 23003KT 200V260 9999 SCT030 13/10 Q1025 NOSIG

Ora: 02:30 (01:30 UTC)

Previsione

Il bollettino è stato emesso 2 ore e 30 minuti fa, alle 23:00 UTC
Previsione valida dal 24 alle 00 UTC al 24 alle 24 UTC
Vento 5 kt da direzioni variabili
Visibilità 10 km o più
nessuna nube inferiore a 1500 m e nessun cumulonembo
Evoluzione graduale
dal 24 alle 09 UTC al 24 alle 11 UTC
Vento 10 kt da sud
Evoluzione graduale
dal 24 alle 18 UTC al 24 alle 20 UTC
Vento 4 kt da direzioni variabili

TAF: LIRN 232300Z 2400/2424 VRB05KT CAVOK BECMG 2409/2411 19010KT BECMG 2418/2420 VRB04KT

Osservazioni e previsioni meteorologiche di più di 4000 aeroporti (messaggi METAR e TAF).

Le stazioni disponibili sono rappresentate dai dischi gialli e rossi sulla carta.

Puntare il mouse per vedere il nome della stazione.

Clicca sopra per visualizzare le osservazioni e previsioni meteorologiche.

Per cambiare la mappa : fare clic sui pulsanti verdi con una croce nera per ingrandire, il pulsante verde con un trattino per diminuire, o sulla freccia verde per le mappe adiacenti.


METAR-TAF: